sensor_id;sensor_type;location;lat;lon;timestamp;pressure;altitude;pressure_sealevel;temperature;humidity
23339;BME280;11841;49.368;20.962;2023-02-04T00:00:19;94844.34;;;2.42;100.00
23339;BME280;11841;49.368;20.962;2023-02-04T00:02:46;94836.28;;;2.43;100.00
23339;BME280;11841;49.368;20.962;2023-02-04T00:05:13;94832.66;;;2.44;100.00
23339;BME280;11841;49.368;20.962;2023-02-04T00:07:41;94842.78;;;2.47;100.00
23339;BME280;11841;49.368;20.962;2023-02-04T00:10:08;94837.16;;;2.51;100.00
23339;BME280;11841;49.368;20.962;2023-02-04T00:12:34;94840.59;;;2.51;100.00
23339;BME280;11841;49.368;20.962;2023-02-04T00:15:01;94845.22;;;2.49;100.00
23339;BME280;11841;49.368;20.962;2023-02-04T00:17:28;94845.03;;;2.51;100.00
23339;BME280;11841;49.368;20.962;2023-02-04T00:19:54;94848.44;;;2.51;100.00
23339;BME280;11841;49.368;20.962;2023-02-04T00:22:21;94842.41;;;2.51;100.00
23339;BME280;11841;49.368;20.962;2023-02-04T00:24:47;94841.59;;;2.50;100.00
23339;BME280;11841;49.368;20.962;2023-02-04T00:27:15;94841.59;;;2.50;100.00
23339;BME280;11841;49.368;20.962;2023-02-04T00:29:42;94830.28;;;2.49;100.00
23339;BME280;11841;49.368;20.962;2023-02-04T00:32:08;94839.78;;;2.51;100.00
23339;BME280;11841;49.368;20.962;2023-02-04T00:34:35;94839.97;;;2.49;100.00
23339;BME280;11841;49.368;20.962;2023-02-04T00:37:02;94831.06;;;2.43;100.00
23339;BME280;11841;49.368;20.962;2023-02-04T00:39:28;94836.53;;;2.48;100.00
23339;BME280;11841;49.368;20.962;2023-02-04T00:41:54;94834.38;;;2.52;100.00
23339;BME280;11841;49.368;20.962;2023-02-04T00:44:21;94831.56;;;2.54;100.00
23339;BME280;11841;49.368;20.962;2023-02-04T00:46:47;94831.56;;;2.54;100.00
23339;BME280;11841;49.368;20.962;2023-02-04T00:49:14;94834.78;;;2.56;100.00
23339;BME280;11841;49.368;20.962;2023-02-04T00:51:40;94831.16;;;2.57;100.00
23339;BME280;11841;49.368;20.962;2023-02-04T00:54:11;94822.69;;;2.55;100.00
23339;BME280;11841;49.368;20.962;2023-02-04T00:56:38;94827.94;;;2.55;100.00
23339;BME280;11841;49.368;20.962;2023-02-04T00:59:04;94826.50;;;2.52;100.00
23339;BME280;11841;49.368;20.962;2023-02-04T01:01:31;94828.31;;;2.52;100.00
23339;BME280;11841;49.368;20.962;2023-02-04T01:03:57;94824.47;;;2.47;100.00
23339;BME280;11841;49.368;20.962;2023-02-04T01:06:23;94823.06;;;2.52;100.00
23339;BME280;11841;49.368;20.962;2023-02-04T01:08:50;94826.91;;;2.49;100.00
23339;BME280;11841;49.368;20.962;2023-02-04T01:11:17;94825.84;;;2.43;100.00
23339;BME280;11841;49.368;20.962;2023-02-04T01:13:43;94811.16;;;2.42;100.00
23339;BME280;11841;49.368;20.962;2023-02-04T01:16:10;94800.06;;;2.40;100.00
23339;BME280;11841;49.368;20.962;2023-02-04T01:18:36;94805.28;;;2.40;100.00
23339;BME280;11841;49.368;20.962;2023-02-04T01:21:03;94807.28;;;2.38;100.00
23339;BME280;11841;49.368;20.962;2023-02-04T01:23:29;94811.22;;;2.28;100.00
23339;BME280;11841;49.368;20.962;2023-02-04T01:25:56;94799.09;;;2.20;100.00
23339;BME280;11841;49.368;20.962;2023-02-04T01:28:22;94808.78;;;2.26;100.00
23339;BME280;11841;49.368;20.962;2023-02-04T01:30:49;94805.41;;;2.32;100.00
23339;BME280;11841;49.368;20.962;2023-02-04T01:33:15;94797.84;;;2.37;100.00
23339;BME280;11841;49.368;20.962;2023-02-04T01:35:42;94796.56;;;2.33;100.00
23339;BME280;11841;49.368;20.962;2023-02-04T01:38:09;94793.47;;;2.23;100.00
23339;BME280;11841;49.368;20.962;2023-02-04T01:40:35;94780.59;;;2.22;100.00
23339;BME280;11841;49.368;20.962;2023-02-04T01:43:02;94783.84;;;2.24;100.00
23339;BME280;11841;49.368;20.962;2023-02-04T01:45:28;94779.78;;;2.21;100.00
23339;BME280;11841;49.368;20.962;2023-02-04T01:47:56;94785.31;;;2.12;100.00
23339;BME280;11841;49.368;20.962;2023-02-04T01:50:22;94780.53;;;2.15;100.00
23339;BME280;11841;49.368;20.962;2023-02-04T01:52:49;94787.44;;;2.23;100.00
23339;BME280;11841;49.368;20.962;2023-02-04T01:55:16;94783.56;;;2.19;100.00
23339;BME280;11841;49.368;20.962;2023-02-04T01:57:43;94782.78;;;2.18;100.00
23339;BME280;11841;49.368;20.962;2023-02-04T02:00:15;94781.31;;;2.16;100.00
23339;BME280;11841;49.368;20.962;2023-02-04T02:02:43;94774.94;;;2.18;100.00
23339;BME280;11841;49.368;20.962;2023-02-04T02:05:18;94771.31;;;2.19;100.00
23339;BME280;11841;49.368;20.962;2023-02-04T02:07:46;94769.44;;;2.13;100.00
23339;BME280;11841;49.368;20.962;2023-02-04T02:10:14;94770.81;;;2.09;100.00
23339;BME280;11841;49.368;20.962;2023-02-04T02:12:41;94765.19;;;2.12;100.00
23339;BME280;11841;49.368;20.962;2023-02-04T02:15:08;94762.78;;;2.11;100.00
23339;BME280;11841;49.368;20.962;2023-02-04T02:17:35;94757.97;;;2.14;100.00
23339;BME280;11841;49.368;20.962;2023-02-04T02:20:02;94750.00;;;2.22;100.00
23339;BME280;11841;49.368;20.962;2023-02-04T02:22:31;94762.84;;;2.17;100.00
23339;BME280;11841;49.368;20.962;2023-02-04T02:24:59;94753.38;;;2.16;100.00
23339;BME280;11841;49.368;20.962;2023-02-04T02:27:25;94761.22;;;2.16;100.00
23339;BME280;11841;49.368;20.962;2023-02-04T02:29:52;94757.00;;;2.15;100.00
23339;BME280;11841;49.368;20.962;2023-02-04T02:32:18;94752.94;;;2.13;100.00
23339;BME280;11841;49.368;20.962;2023-02-04T02:34:45;94752.50;;;2.09;100.00
23339;BME280;11841;49.368;20.962;2023-02-04T02:37:12;94757.13;;;2.07;100.00
23339;BME280;11841;49.368;20.962;2023-02-04T02:39:39;94755.94;;;2.10;100.00
23339;BME280;11841;49.368;20.962;2023-02-04T02:42:08;94747.91;;;2.11;100.00
23339;BME280;11841;49.368;20.962;2023-02-04T02:44:34;94753.56;;;2.15;100.00
23339;BME280;11841;49.368;20.962;2023-02-04T02:47:01;94756.75;;;2.10;100.00
23339;BME280;11841;49.368;20.962;2023-02-04T02:49:28;94757.97;;;2.14;100.00
23339;BME280;11841;49.368;20.962;2023-02-04T02:51:55;94756.38;;;2.13;100.00
23339;BME280;11841;49.368;20.962;2023-02-04T02:54:23;94758.38;;;2.11;100.00
23339;BME280;11841;49.368;20.962;2023-02-04T02:56:50;94759.38;;;2.10;100.00
23339;BME280;11841;49.368;20.962;2023-02-04T02:59:17;94759.63;;;2.15;100.00
23339;BME280;11841;49.368;20.962;2023-02-04T03:01:44;94761.59;;;2.13;100.00
23339;BME280;11841;49.368;20.962;2023-02-04T03:04:13;94760.59;;;2.14;100.00
23339;BME280;11841;49.368;20.962;2023-02-04T03:06:40;94754.00;;;2.18;100.00
23339;BME280;11841;49.368;20.962;2023-02-04T03:09:06;94753.63;;;2.21;100.00
23339;BME280;11841;49.368;20.962;2023-02-04T03:11:33;94753.81;;;2.20;100.00
23339;BME280;11841;49.368;20.962;2023-02-04T03:13:59;94749.56;;;2.19;100.00
23339;BME280;11841;49.368;20.962;2023-02-04T03:16:27;94757.97;;;2.14;100.00
23339;BME280;11841;49.368;20.962;2023-02-04T03:18:54;94750.34;;;2.13;100.00
23339;BME280;11841;49.368;20.962;2023-02-04T03:21:20;94749.91;;;2.09;100.00
23339;BME280;11841;49.368;20.962;2023-02-04T03:23:47;94748.53;;;2.13;100.00
23339;BME280;11841;49.368;20.962;2023-02-04T03:26:14;94747.53;;;2.14;100.00
23339;BME280;11841;49.368;20.962;2023-02-04T03:28:40;94751.16;;;2.13;100.00
23339;BME280;11841;49.368;20.962;2023-02-04T03:31:07;94750.72;;;2.10;100.00
23339;BME280;11841;49.368;20.962;2023-02-04T03:33:34;94747.47;;;2.08;100.00
23339;BME280;11841;49.368;20.962;2023-02-04T03:36:01;94750.28;;;2.06;100.00
23339;BME280;11841;49.368;20.962;2023-02-04T03:38:27;94744.81;;;2.01;100.00
23339;BME280;11841;49.368;20.962;2023-02-04T03:40:54;94751.53;;;1.89;100.00
23339;BME280;11841;49.368;20.962;2023-02-04T03:43:20;94748.91;;;1.89;100.00
23339;BME280;11841;49.368;20.962;2023-02-04T03:45:47;94753.31;;;1.89;100.00
23339;BME280;11841;49.368;20.962;2023-02-04T03:48:13;94757.13;;;1.86;100.00
23339;BME280;11841;49.368;20.962;2023-02-04T03:50:40;94757.75;;;1.88;100.00
23339;BME280;11841;49.368;20.962;2023-02-04T03:53:06;94767.16;;;1.83;100.00
23339;BME280;11841;49.368;20.962;2023-02-04T03:55:33;94768.31;;;1.80;100.00
23339;BME280;11841;49.368;20.962;2023-02-04T03:58:01;94765.50;;;1.82;100.00
23339;BME280;11841;49.368;20.962;2023-02-04T04:00:28;94770.84;;;1.88;100.00
23339;BME280;11841;49.368;20.962;2023-02-04T04:02:55;94774.13;;;1.97;100.00
23339;BME280;11841;49.368;20.962;2023-02-04T04:05:22;94771.44;;;1.90;100.00
23339;BME280;11841;49.368;20.962;2023-02-04T04:07:49;94776.22;;;1.87;100.00
23339;BME280;11841;49.368;20.962;2023-02-04T04:10:15;94782.31;;;1.94;100.00
23339;BME280;11841;49.368;20.962;2023-02-04T04:12:42;94786.44;;;2.03;100.00
23339;BME280;11841;49.368;20.962;2023-02-04T04:15:08;94780.66;;;2.07;100.00
23339;BME280;11841;49.368;20.962;2023-02-04T04:17:35;94782.53;;;2.13;100.00
23339;BME280;11841;49.368;20.962;2023-02-04T04:20:02;94782.59;;;2.20;100.00
23339;BME280;11841;49.368;20.962;2023-02-04T04:22:29;94792.97;;;2.13;100.00
23339;BME280;11841;49.368;20.962;2023-02-04T04:24:55;94800.69;;;2.21;100.00
23339;BME280;11841;49.368;20.962;2023-02-04T04:27:22;94798.31;;;2.26;100.00
23339;BME280;11841;49.368;20.962;2023-02-04T04:29:48;94799.56;;;2.30;100.00
23339;BME280;11841;49.368;20.962;2023-02-04T04:32:14;94803.78;;;2.31;100.00
23339;BME280;11841;49.368;20.962;2023-02-04T04:34:41;94807.22;;;2.32;100.00
23339;BME280;11841;49.368;20.962;2023-02-04T04:37:07;94814.06;;;2.33;100.00
23339;BME280;11841;49.368;20.962;2023-02-04T04:39:34;94812.06;;;2.35;100.00
23339;BME280;11841;49.368;20.962;2023-02-04T04:42:00;94814.69;;;2.35;100.00
23339;BME280;11841;49.368;20.962;2023-02-04T04:44:27;94812.31;;;2.40;100.00
23339;BME280;11841;49.368;20.962;2023-02-04T04:46:53;94819.44;;;2.46;100.00
23339;BME280;11841;49.368;20.962;2023-02-04T04:49:20;94824.47;;;2.47;100.00
23339;BME280;11841;49.368;20.962;2023-02-04T04:51:46;94831.84;;;2.37;100.00
23339;BME280;11841;49.368;20.962;2023-02-04T04:54:13;94836.06;;;2.38;100.00
23339;BME280;11841;49.368;20.962;2023-02-04T04:56:39;94836.44;;;2.35;100.00
23339;BME280;11841;49.368;20.962;2023-02-04T04:59:06;94844.28;;;2.35;100.00
23339;BME280;11841;49.368;20.962;2023-02-04T05:01:32;94847.09;;;2.34;100.00
23339;BME280;11841;49.368;20.962;2023-02-04T05:03:59;94858.78;;;2.38;100.00
23339;BME280;11841;49.368;20.962;2023-02-04T05:06:25;94861.38;;;2.38;100.00
23339;BME280;11841;49.368;20.962;2023-02-04T05:08:51;94861.59;;;2.36;100.00
23339;BME280;11841;49.368;20.962;2023-02-04T05:11:18;94866.81;;;2.36;100.00
23339;BME280;11841;49.368;20.962;2023-02-04T05:13:45;94874.22;;;2.33;100.00
23339;BME280;11841;49.368;20.962;2023-02-04T05:16:12;94872.81;;;2.30;100.00
23339;BME280;11841;49.368;20.962;2023-02-04T05:18:38;94887.19;;;2.20;100.00
23339;BME280;11841;49.368;20.962;2023-02-04T05:21:05;94886.34;;;2.19;100.00
23339;BME280;11841;49.368;20.962;2023-02-04T05:23:32;94886.59;;;2.24;100.00
23339;BME280;11841;49.368;20.962;2023-02-04T05:25:59;94896.28;;;2.24;100.00
23339;BME280;11841;49.368;20.962;2023-02-04T05:28:25;94912.50;;;2.19;100.00
23339;BME280;11841;49.368;20.962;2023-02-04T05:30:52;94919.81;;;2.24;100.00
23339;BME280;11841;49.368;20.962;2023-02-04T07:07:33;95399.13;;;-0.36;96.57
23339;BME280;11841;49.368;20.962;2023-02-04T07:15:35;95415.13;;;-0.65;98.04
23339;BME280;11841;49.368;20.962;2023-02-04T07:21:00;95449.25;;;-0.68;98.50
23339;BME280;11841;49.368;20.962;2023-02-04T07:23:27;95490.84;;;-0.76;98.26
23339;BME280;11841;49.368;20.962;2023-02-04T07:25:53;95495.03;;;-0.83;98.32
23339;BME280;11841;49.368;20.962;2023-02-04T07:28:22;95518.06;;;-0.96;97.76
23339;BME280;11841;49.368;20.962;2023-02-04T07:30:49;95523.94;;;-0.94;98.00
23339;BME280;11841;49.368;20.962;2023-02-04T07:33:15;95538.66;;;-1.02;98.11
23339;BME280;11841;49.368;20.962;2023-02-04T07:35:42;95560.56;;;-1.05;99.29
23339;BME280;11841;49.368;20.962;2023-02-04T07:38:09;95551.50;;;-1.01;99.00
23339;BME280;11841;49.368;20.962;2023-02-04T07:40:36;95556.94;;;-1.12;99.58
23339;BME280;11841;49.368;20.962;2023-02-04T07:43:02;95604.50;;;-1.19;99.51
23339;BME280;11841;49.368;20.962;2023-02-04T07:45:29;95597.16;;;-1.24;100.00
23339;BME280;11841;49.368;20.962;2023-02-04T07:47:55;95596.63;;;-1.28;99.91
23339;BME280;11841;49.368;20.962;2023-02-04T07:50:21;95621.13;;;-1.30;99.97
23339;BME280;11841;49.368;20.962;2023-02-04T07:52:48;95620.75;;;-1.35;99.62
23339;BME280;11841;49.368;20.962;2023-02-04T07:55:14;95654.03;;;-1.39;100.00
23339;BME280;11841;49.368;20.962;2023-02-04T07:57:41;95659.00;;;-1.45;100.00
23339;BME280;11841;49.368;20.962;2023-02-04T08:00:08;95662.59;;;-1.46;100.00
23339;BME280;11841;49.368;20.962;2023-02-04T08:02:34;95686.63;;;-1.44;100.00
23339;BME280;11841;49.368;20.962;2023-02-04T08:05:01;95687.91;;;-1.48;99.67
23339;BME280;11841;49.368;20.962;2023-02-04T08:07:28;95693.09;;;-1.48;100.00
23339;BME280;11841;49.368;20.962;2023-02-04T08:09:54;95721.41;;;-1.45;99.79
23339;BME280;11841;49.368;20.962;2023-02-04T08:12:21;95715.00;;;-1.51;98.65
23339;BME280;11841;49.368;20.962;2023-02-04T08:14:47;95724.22;;;-1.56;99.13
23339;BME280;11841;49.368;20.962;2023-02-04T08:17:14;95738.97;;;-1.57;98.82
23339;BME280;11841;49.368;20.962;2023-02-04T08:19:40;95753.34;;;-1.62;98.40
23339;BME280;11841;49.368;20.962;2023-02-04T08:22:07;95776.59;;;-1.61;98.71
23339;BME280;11841;49.368;20.962;2023-02-04T08:24:34;95776.75;;;-1.62;99.03
23339;BME280;11841;49.368;20.962;2023-02-04T08:27:00;95789.06;;;-1.64;99.18
23339;BME280;11841;49.368;20.962;2023-02-04T08:29:26;95814.38;;;-1.66;99.24
23339;BME280;11841;49.368;20.962;2023-02-04T08:31:53;95814.94;;;-1.72;99.53
23339;BME280;11841;49.368;20.962;2023-02-04T08:34:20;95821.38;;;-1.76;99.98
23339;BME280;11841;49.368;20.962;2023-02-04T08:36:46;95819.16;;;-1.71;99.91
23339;BME280;11841;49.368;20.962;2023-02-04T08:39:12;95878.41;;;-1.75;99.73
23339;BME280;11841;49.368;20.962;2023-02-04T08:41:39;95847.34;;;-1.76;100.00
23339;BME280;11841;49.368;20.962;2023-02-04T08:44:06;95855.44;;;-1.79;100.00
23339;BME280;11841;49.368;20.962;2023-02-04T08:46:32;95848.59;;;-1.90;100.00
23339;BME280;11841;49.368;20.962;2023-02-04T08:48:58;95860.94;;;-1.92;99.34
23339;BME280;11841;49.368;20.962;2023-02-04T08:51:25;95871.03;;;-1.89;99.48
23339;BME280;11841;49.368;20.962;2023-02-04T08:53:51;95893.59;;;-1.89;98.61
23339;BME280;11841;49.368;20.962;2023-02-04T08:56:18;95901.97;;;-1.95;97.46
23339;BME280;11841;49.368;20.962;2023-02-04T08:58:45;95907.81;;;-1.93;98.09
23339;BME280;11841;49.368;20.962;2023-02-04T09:01:13;95915.19;;;-1.98;98.20
23339;BME280;11841;49.368;20.962;2023-02-04T09:03:39;95925.16;;;-2.03;98.45
23339;BME280;11841;49.368;20.962;2023-02-04T09:06:06;95930.91;;;-2.09;97.34
23339;BME280;11841;49.368;20.962;2023-02-04T09:08:33;95935.84;;;-2.06;97.56
23339;BME280;11841;49.368;20.962;2023-02-04T09:11:00;95943.63;;;-2.06;97.65
23339;BME280;11841;49.368;20.962;2023-02-04T09:13:27;95953.59;;;-2.11;97.35
23339;BME280;11841;49.368;20.962;2023-02-04T09:15:53;95964.28;;;-2.14;96.58
23339;BME280;11841;49.368;20.962;2023-02-04T09:18:20;95973.69;;;-2.13;96.82
23339;BME280;11841;49.368;20.962;2023-02-04T09:20:48;95985.31;;;-2.17;96.31
23339;BME280;11841;49.368;20.962;2023-02-04T09:23:14;96007.03;;;-2.18;96.60
23339;BME280;11841;49.368;20.962;2023-02-04T09:25:42;96011.28;;;-2.17;97.91
23339;BME280;11841;49.368;20.962;2023-02-04T09:28:09;96002.09;;;-2.21;97.71
23339;BME280;11841;49.368;20.962;2023-02-04T09:30:37;96006.31;;;-2.30;96.15
23339;BME280;11841;49.368;20.962;2023-02-04T09:33:04;96017.81;;;-2.32;97.59
23339;BME280;11841;49.368;20.962;2023-02-04T09:35:30;96020.63;;;-2.35;98.03
23339;BME280;11841;49.368;20.962;2023-02-04T09:37:57;96052.06;;;-2.38;97.98
23339;BME280;11841;49.368;20.962;2023-02-04T09:40:23;96034.16;;;-2.41;97.32
23339;BME280;11841;49.368;20.962;2023-02-04T09:42:51;96045.59;;;-2.44;97.27
23339;BME280;11841;49.368;20.962;2023-02-04T09:45:20;96058.72;;;-2.46;97.13
23339;BME280;11841;49.368;20.962;2023-02-04T09:47:48;96083.06;;;-2.47;97.39
23339;BME280;11841;49.368;20.962;2023-02-04T09:50:16;96076.53;;;-2.41;96.57
23339;BME280;11841;49.368;20.962;2023-02-04T09:52:44;96087.72;;;-2.40;95.95
23339;BME280;11841;49.368;20.962;2023-02-04T09:55:13;96085.81;;;-2.38;94.31
23339;BME280;11841;49.368;20.962;2023-02-04T09:57:39;96091.28;;;-2.41;94.22
23339;BME280;11841;49.368;20.962;2023-02-04T10:00:13;96093.47;;;-2.37;93.28
23339;BME280;11841;49.368;20.962;2023-02-04T10:02:40;96104.53;;;-2.44;93.02
23339;BME280;11841;49.368;20.962;2023-02-04T10:05:14;96117.25;;;-2.41;92.78
23339;BME280;11841;49.368;20.962;2023-02-04T10:07:41;96100.97;;;-2.43;90.82
23339;BME280;11841;49.368;20.962;2023-02-04T10:10:12;96104.97;;;-2.39;90.90
23339;BME280;11841;49.368;20.962;2023-02-04T10:12:39;96136.69;;;-2.36;89.95
23339;BME280;11841;49.368;20.962;2023-02-04T10:15:07;96107.28;;;-2.36;91.34
23339;BME280;11841;49.368;20.962;2023-02-04T10:17:36;96142.13;;;-2.39;90.82
23339;BME280;11841;49.368;20.962;2023-02-04T10:20:02;96143.19;;;-2.41;89.17
23339;BME280;11841;49.368;20.962;2023-02-04T10:22:29;96133.53;;;-2.39;87.39
23339;BME280;11841;49.368;20.962;2023-02-04T10:24:55;96159.63;;;-2.41;86.31
23339;BME280;11841;49.368;20.962;2023-02-04T10:27:22;96149.47;;;-2.44;85.62
23339;BME280;11841;49.368;20.962;2023-02-04T10:29:58;96167.28;;;-2.39;86.49
23339;BME280;11841;49.368;20.962;2023-02-04T10:32:26;96145.41;;;-2.37;86.21
23339;BME280;11841;49.368;20.962;2023-02-04T10:34:55;96160.38;;;-2.29;87.54
23339;BME280;11841;49.368;20.962;2023-02-04T10:37:22;96162.16;;;-2.20;87.45
23339;BME280;11841;49.368;20.962;2023-02-04T10:39:48;96172.56;;;-2.20;85.08
23339;BME280;11841;49.368;20.962;2023-02-04T10:42:22;96182.16;;;-2.21;84.97
23339;BME280;11841;49.368;20.962;2023-02-04T10:44:49;96178.03;;;-2.23;85.41
23339;BME280;11841;49.368;20.962;2023-02-04T10:47:16;96179.69;;;-2.22;85.74
23339;BME280;11841;49.368;20.962;2023-02-04T10:49:53;96192.09;;;-2.26;84.91
23339;BME280;11841;49.368;20.962;2023-02-04T10:52:20;96190.06;;;-2.22;84.31
23339;BME280;11841;49.368;20.962;2023-02-04T10:54:48;96215.53;;;-2.16;84.74
23339;BME280;11841;49.368;20.962;2023-02-04T10:57:27;96206.53;;;-2.12;84.46
23339;BME280;11841;49.368;20.962;2023-02-04T10:59:58;96208.34;;;-2.03;84.57
23339;BME280;11841;49.368;20.962;2023-02-04T11:05:09;96205.88;;;-2.05;83.37
23339;BME280;11841;49.368;20.962;2023-02-04T11:07:36;96223.50;;;-2.08;82.39
23339;BME280;11841;49.368;20.962;2023-02-04T11:10:02;96217.25;;;-2.06;82.77
23339;BME280;11841;49.368;20.962;2023-02-04T11:15:02;96215.00;;;-2.10;82.63
23339;BME280;11841;49.368;20.962;2023-02-04T11:17:30;96216.81;;;-2.11;83.33
23339;BME280;11841;49.368;20.962;2023-02-04T11:19:57;96216.53;;;-2.08;83.09
23339;BME280;11841;49.368;20.962;2023-02-04T11:22:41;96212.53;;;-2.12;82.63
23339;BME280;11841;49.368;20.962;2023-02-04T11:27:53;96216.53;;;-2.08;83.26
23339;BME280;11841;49.368;20.962;2023-02-04T11:30:20;96223.38;;;-2.07;83.94
23339;BME280;11841;49.368;20.962;2023-02-04T11:33:00;96225.38;;;-2.10;82.65
23339;BME280;11841;49.368;20.962;2023-02-04T11:35:27;96227.06;;;-2.09;83.84
23339;BME280;11841;49.368;20.962;2023-02-04T11:37:54;96258.50;;;-2.12;82.88
23339;BME280;11841;49.368;20.962;2023-02-04T11:40:22;96241.69;;;-2.08;83.57
23339;BME280;11841;49.368;20.962;2023-02-04T11:42:49;96251.13;;;-2.07;83.93
23339;BME280;11841;49.368;20.962;2023-02-04T11:45:39;96241.69;;;-2.08;83.37
23339;BME280;11841;49.368;20.962;2023-02-04T11:48:13;96249.75;;;-2.11;83.27
23339;BME280;11841;49.368;20.962;2023-02-04T11:50:40;96272.16;;;-2.10;84.76
23339;BME280;11841;49.368;20.962;2023-02-04T11:53:09;96258.19;;;-2.19;87.79
23339;BME280;11841;49.368;20.962;2023-02-04T11:55:36;96270.81;;;-2.25;88.67
23339;BME280;11841;49.368;20.962;2023-02-04T11:58:13;96266.59;;;-2.26;89.46
23339;BME280;11841;49.368;20.962;2023-02-04T12:00:40;96268.00;;;-2.22;89.71
23339;BME280;11841;49.368;20.962;2023-02-04T12:05:46;96271.25;;;-2.20;87.94
23339;BME280;11841;49.368;20.962;2023-02-04T12:13:28;96249.78;;;-2.02;87.41
23339;BME280;11841;49.368;20.962;2023-02-04T12:16:05;96245.69;;;-2.04;86.91
23339;BME280;11841;49.368;20.962;2023-02-04T12:18:32;96253.78;;;-1.98;88.27
23339;BME280;11841;49.368;20.962;2023-02-04T12:21:00;96262.41;;;-1.97;88.93
23339;BME280;11841;49.368;20.962;2023-02-04T12:23:27;96267.75;;;-1.99;90.05
23339;BME280;11841;49.368;20.962;2023-02-04T12:25:54;96278.63;;;-2.05;90.91
23339;BME280;11841;49.368;20.962;2023-02-04T12:28:21;96291.56;;;-2.14;92.47
23339;BME280;11841;49.368;20.962;2023-02-04T12:30:48;96282.22;;;-2.17;93.46
23339;BME280;11841;49.368;20.962;2023-02-04T12:33:15;96288.50;;;-2.19;94.78
23339;BME280;11841;49.368;20.962;2023-02-04T12:35:41;96307.03;;;-2.24;94.40
23339;BME280;11841;49.368;20.962;2023-02-04T12:38:08;96302.75;;;-2.34;92.59
23339;BME280;11841;49.368;20.962;2023-02-04T12:40:35;96305.78;;;-2.29;90.30
23339;BME280;11841;49.368;20.962;2023-02-04T12:43:02;96321.13;;;-2.26;89.66
23339;BME280;11841;49.368;20.962;2023-02-04T12:45:29;96313.59;;;-2.29;86.32
23339;BME280;11841;49.368;20.962;2023-02-04T12:47:56;96308.13;;;-2.26;85.78
23339;BME280;11841;49.368;20.962;2023-02-04T12:50:22;96311.63;;;-2.16;85.96
23339;BME280;11841;49.368;20.962;2023-02-04T12:52:53;96333.31;;;-2.06;86.21
23339;BME280;11841;49.368;20.962;2023-02-04T12:55:20;96333.44;;;-2.08;86.04
23339;BME280;11841;49.368;20.962;2023-02-04T12:57:47;96349.28;;;-2.11;85.78
23339;BME280;11841;49.368;20.962;2023-02-04T13:00:14;96339.50;;;-2.18;84.85
23339;BME280;11841;49.368;20.962;2023-02-04T13:02:41;96352.75;;;-2.21;85.06
23339;BME280;11841;49.368;20.962;2023-02-04T13:05:07;96347.56;;;-2.21;84.20
23339;BME280;11841;49.368;20.962;2023-02-04T13:07:34;96355.22;;;-2.20;84.83
23339;BME280;11841;49.368;20.962;2023-02-04T13:10:01;96347.03;;;-2.15;84.73
23339;BME280;11841;49.368;20.962;2023-02-04T13:12:27;96349.91;;;-2.18;83.47
23339;BME280;11841;49.368;20.962;2023-02-04T13:14:53;96347.75;;;-2.13;83.27
23339;BME280;11841;49.368;20.962;2023-02-04T13:17:20;96341.25;;;-2.08;82.64
23339;BME280;11841;49.368;20.962;2023-02-04T13:19:46;96352.81;;;-2.12;81.23
23339;BME280;11841;49.368;20.962;2023-02-04T13:22:13;96346.81;;;-2.12;81.90
23339;BME280;11841;49.368;20.962;2023-02-04T13:24:39;96364.16;;;-2.13;82.59
23339;BME280;11841;49.368;20.962;2023-02-04T13:27:06;96372.09;;;-2.14;84.86
23339;BME280;11841;49.368;20.962;2023-02-04T13:29:32;96378.97;;;-2.24;86.76
23339;BME280;11841;49.368;20.962;2023-02-04T13:31:59;96417.47;;;-2.29;87.63
23339;BME280;11841;49.368;20.962;2023-02-04T13:34:25;96408.50;;;-2.36;85.45
23339;BME280;11841;49.368;20.962;2023-02-04T13:36:52;96413.94;;;-2.39;84.21
23339;BME280;11841;49.368;20.962;2023-02-04T13:39:19;96398.25;;;-2.38;83.44
23339;BME280;11841;49.368;20.962;2023-02-04T13:41:45;96405.78;;;-2.35;83.07
23339;BME280;11841;49.368;20.962;2023-02-04T13:44:12;96386.31;;;-2.29;82.77
23339;BME280;11841;49.368;20.962;2023-02-04T13:46:38;96395.78;;;-2.39;81.64
23339;BME280;11841;49.368;20.962;2023-02-04T13:49:05;96398.72;;;-2.44;82.40
23339;BME280;11841;49.368;20.962;2023-02-04T13:51:31;96420.06;;;-2.40;84.11
23339;BME280;11841;49.368;20.962;2023-02-04T13:53:58;96425.50;;;-2.43;85.69
23339;BME280;11841;49.368;20.962;2023-02-04T13:56:26;96436.16;;;-2.47;86.73
23339;BME280;11841;49.368;20.962;2023-02-04T13:58:53;96434.25;;;-2.44;85.44
23339;BME280;11841;49.368;20.962;2023-02-04T14:01:19;96445.56;;;-2.46;85.07
23339;BME280;11841;49.368;20.962;2023-02-04T14:03:46;96468.09;;;-2.46;85.04
23339;BME280;11841;49.368;20.962;2023-02-04T14:06:12;96445.34;;;-2.54;84.08
23339;BME280;11841;49.368;20.962;2023-02-04T14:08:40;96455.50;;;-2.51;84.95
23339;BME280;11841;49.368;20.962;2023-02-04T14:11:06;96454.22;;;-2.67;85.43
23339;BME280;11841;49.368;20.962;2023-02-04T14:13:33;96456.69;;;-2.66;85.95
23339;BME280;11841;49.368;20.962;2023-02-04T14:15:59;96474.63;;;-2.63;85.63
23339;BME280;11841;49.368;20.962;2023-02-04T14:18:26;96473.69;;;-2.62;85.12
23339;BME280;11841;49.368;20.962;2023-02-04T14:20:52;96475.78;;;-2.56;84.60
23339;BME280;11841;49.368;20.962;2023-02-04T14:23:19;96476.97;;;-2.60;83.58
23339;BME280;11841;49.368;20.962;2023-02-04T14:25:45;96490.44;;;-2.55;83.97
23339;BME280;11841;49.368;20.962;2023-02-04T14:28:12;96470.34;;;-2.53;83.27
23339;BME280;11841;49.368;20.962;2023-02-04T14:30:38;96496.78;;;-2.48;82.89
23339;BME280;11841;49.368;20.962;2023-02-04T14:33:05;96495.63;;;-2.55;81.40
23339;BME280;11841;49.368;20.962;2023-02-04T14:35:34;96490.44;;;-2.66;81.80
23339;BME280;11841;49.368;20.962;2023-02-04T14:38:00;96499.16;;;-2.67;81.22
23339;BME280;11841;49.368;20.962;2023-02-04T14:40:27;96493.97;;;-2.67;81.86
23339;BME280;11841;49.368;20.962;2023-02-04T14:42:53;96493.03;;;-2.66;81.69
23339;BME280;11841;49.368;20.962;2023-02-04T14:45:20;96510.03;;;-2.62;81.79
23339;BME280;11841;49.368;20.962;2023-02-04T14:47:46;96524.41;;;-2.58;81.90